Time;durP1;ratioP1;P1;durP2;ratioP2;P2;SDS_P1;SDS_P2;PMS_P1;PMS_P2;Temp;Humidity;BMP_temperature;BMP_pressure;BME280_temperature;BME280_humidity;BME280_pressure;Samples;Min_cycle;Max_cycle;Signal;HPM_P1;HPM_P2
2022/09/23 00:01:24;;;;;;;9.03;8.30;;;;;;;3.11;100.00;97493.06;5007566;28;20212;-59
2022/09/23 00:03:52;;;;;;;8.87;8.07;;;;;;;3.04;100.00;97490.13;5008263;28;20724;-61
2022/09/23 00:06:22;;;;;;;8.33;7.73;;;;;;;3.07;100.00;97492.47;5010600;28;20749;-63
2022/09/23 00:08:51;;;;;;;9.90;9.10;;;;;;;3.02;100.00;97484.19;5006320;28;20204;-61
2022/09/23 00:11:22;;;;;;;10.50;9.47;;;;;;;3.02;100.00;97487.63;4990487;28;20244;-62
2022/09/23 00:13:52;;;;;;;9.93;9.03;;;;;;;3.15;100.00;97495.28;4978916;28;20224;-62
2022/09/23 00:16:22;;;;;;;9.53;8.70;;;;;;;3.16;100.00;97490.88;5005297;28;20205;-60
2022/09/23 00:18:50;;;;;;;9.17;8.23;;;;;;;3.15;100.00;97487.41;5008393;28;20208;-60
2022/09/23 00:21:20;;;;;;;9.87;9.07;;;;;;;3.18;100.00;97483.72;5010383;28;20963;-60
2022/09/23 00:23:48;;;;;;;10.10;9.10;;;;;;;3.10;100.00;97476.50;5008760;28;20235;-60
2022/09/23 00:26:19;;;;;;;9.30;8.60;;;;;;;3.13;100.00;97484.09;4991494;28;20824;-57
2022/09/23 00:28:49;;;;;;;9.97;9.07;;;;;;;3.17;100.00;97487.31;5008432;28;20561;-60
2022/09/23 00:34:58;;;;;;;9.03;8.20;;;;;;;3.25;100.00;97476.19;4951367;28;20405;-62
2022/09/23 00:37:28;;;;;;;9.43;8.53;;;;;;;3.31;100.00;97475.66;5003866;28;20285;-56
2022/09/23 00:39:56;;;;;;;8.63;7.93;;;;;;;3.34;100.00;97475.41;5005438;28;20202;-62
2022/09/23 00:42:24;;;;;;;11.23;8.10;;;;;;;3.37;100.00;97477.75;5008111;28;20684;-63
2022/09/23 00:44:56;;;;;;;9.17;8.37;;;;;;;3.40;100.00;97476.63;5004780;28;20264;-59
2022/09/23 00:47:30;;;;;;;11.67;8.53;;;;;;;3.38;100.00;97479.41;4997649;28;20327;-57
2022/09/23 00:50:03;;;;;;;8.87;8.27;;;;;;;3.37;100.00;97472.50;4956015;28;20224;-60
2022/09/23 00:52:32;;;;;;;8.40;7.67;;;;;;;3.33;100.00;97465.88;5004739;28;20193;-60
2022/09/23 00:55:03;;;;;;;11.07;7.70;;;;;;;3.39;100.00;97467.13;5009896;28;20315;-62
2022/09/23 00:57:32;;;;;;;9.30;7.57;;;;;;;3.35;100.00;97469.19;5004825;28;20196;-62
2022/09/23 01:00:02;;;;;;;8.60;7.90;;;;;;;3.31;100.00;97466.00;5007846;28;20317;-61
2022/09/23 01:02:31;;;;;;;8.33;7.50;;;;;;;3.22;100.00;97458.94;5002717;28;20295;-57
2022/09/23 01:05:01;;;;;;;8.10;7.30;;;;;;;3.23;100.00;97460.59;4958912;28;20335;-63
2022/09/23 01:07:30;;;;;;;8.33;7.33;;;;;;;3.19;100.00;97467.88;5001497;28;20299;-52
2022/09/23 01:09:59;;;;;;;10.23;6.63;;;;;;;3.17;100.00;97466.34;5009202;28;20278;-59
2022/09/23 01:12:45;;;;;;;6.70;6.27;;;;;;;3.10;100.00;97465.22;5009386;28;20228;-58
2022/09/23 01:15:19;;;;;;;13.13;6.97;;;;;;;3.02;100.00;97463.25;5011015;28;20818;-59
2022/09/23 01:17:51;;;;;;;5.67;5.37;;;;;;;3.02;100.00;97458.81;5011490;28;20818;-60
2022/09/23 01:20:31;;;;;;;6.37;5.90;;;;;;;2.98;100.00;97456.59;4962785;28;21658;-61
2022/09/23 01:23:10;;;;;;;8.60;6.30;;;;;;;2.93;100.00;97445.69;5010549;28;20205;-60
2022/09/23 01:25:52;;;;;;;14.57;7.07;;;;;;;2.78;100.00;97455.66;5012484;28;20507;-63
2022/09/23 01:28:33;;;;;;;8.57;5.93;;;;;;;2.80;100.00;97446.72;5010720;28;20291;-65
2022/09/23 01:31:06;;;;;;;17.23;7.17;;;;;;;2.85;100.00;97451.56;5011976;28;20300;-63
2022/09/23 01:33:39;;;;;;;9.90;7.27;;;;;;;2.81;100.00;97444.94;5013508;28;20201;-63
2022/09/23 01:36:12;;;;;;;8.87;6.83;;;;;;;2.67;100.00;97430.38;4988003;28;20259;-62
2022/09/23 01:38:45;;;;;;;6.93;6.43;;;;;;;2.78;100.00;97443.38;5001902;28;20215;-61
2022/09/23 01:41:34;;;;;;;7.17;6.50;;;;;;;2.79;100.00;97442.44;5006866;28;20204;-62
2022/09/23 01:44:06;;;;;;;25.13;7.50;;;;;;;2.77;100.00;97440.91;5012278;28;20226;-63
2022/09/23 01:46:41;;;;;;;11.07;6.37;;;;;;;2.72;100.00;97428.22;5010537;28;20224;-60
2022/09/23 01:49:12;;;;;;;5.97;5.47;;;;;;;2.74;100.00;97424.50;5010232;28;20322;-62
2022/09/23 01:51:43;;;;;;;23.23;9.33;;;;;;;2.84;100.00;97428.97;4962948;28;20775;-62
2022/09/23 01:54:15;;;;;;;8.10;7.30;;;;;;;2.80;100.00;97422.34;5009241;28;20223;-64
2022/09/23 01:56:48;;;;;;;13.47;7.47;;;;;;;2.85;100.00;97433.25;5005887;28;20315;-58
2022/09/23 01:59:20;;;;;;;47.87;10.47;;;;;;;2.77;100.00;97433.06;5010000;28;20206;-62
2022/09/23 02:01:54;;;;;;;9.07;6.87;;;;;;;2.77;100.00;97435.69;5012412;28;20916;-60
2022/09/23 02:04:25;;;;;;;9.20;6.57;;;;;;;2.75;100.00;97423.56;5010177;28;20358;-64
2022/09/23 02:06:57;;;;;;;19.20;8.17;;;;;;;2.75;100.00;97420.94;5012054;28;20270;-62
2022/09/23 02:09:29;;;;;;;45.80;10.63;;;;;;;2.67;100.00;97420.75;4964216;28;20995;-61
2022/09/23 02:12:01;;;;;;;31.47;9.97;;;;;;;2.69;100.00;97423.22;5011303;28;20290;-63
2022/09/23 02:14:32;;;;;;;42.60;10.47;;;;;;;2.61;100.00;97416.00;5008962;28;20232;-63
2022/09/23 02:17:07;;;;;;;6.83;6.40;;;;;;;2.63;100.00;97413.28;5013003;28;20205;-61
2022/09/23 02:19:40;;;;;;;8.03;6.33;;;;;;;2.66;100.00;97415.66;5011713;28;20294;-60
2022/09/23 02:22:12;;;;;;;13.23;7.40;;;;;;;2.64;100.00;97415.75;4984122;28;20344;-62
2022/09/23 02:24:40;;;;;;;8.80;6.17;;;;;;;2.65;100.00;97419.22;5003660;28;20236;-62
2022/09/23 02:27:17;;;;;;;8.37;6.57;;;;;;;2.71;100.00;97416.94;5008920;28;20207;-63
2022/09/23 02:29:50;;;;;;;6.97;6.47;;;;;;;2.71;100.00;97421.31;5011930;28;20204;-64
2022/09/23 02:32:22;;;;;;;11.37;7.60;;;;;;;2.76;100.00;97419.13;5008168;28;20205;-55
2022/09/23 02:34:56;;;;;;;13.37;8.23;;;;;;;2.67;100.00;97415.53;5008069;28;20263;-62
2022/09/23 02:37:28;;;;;;;21.83;8.03;;;;;;;2.65;100.00;97422.69;4960295;28;21058;-60
2022/09/23 02:40:00;;;;;;;7.30;6.70;;;;;;;2.71;100.00;97410.84;5005972;28;20220;-61
2022/09/23 02:42:34;;;;;;;7.30;6.63;;;;;;;2.64;100.00;97402.66;4929398;28;20213;-61
2022/09/23 02:45:03;;;;;;;8.20;6.80;;;;;;;2.68;100.00;97408.50;5012383;28;20235;-62
2022/09/23 02:47:36;;;;;;;36.00;10.43;;;;;;;2.60;100.00;97409.13;4989191;28;20228;-63
2022/09/23 02:50:04;;;;;;;21.30;7.27;;;;;;;2.53;100.00;97416.69;5012135;28;20200;-61
2022/09/23 02:52:33;;;;;;;7.90;7.20;;;;;;;2.51;100.00;97415.13;4989845;28;20209;-60
2022/09/23 02:55:01;;;;;;;22.17;7.87;;;;;;;2.55;100.00;97408.69;5010914;28;20228;-61
2022/09/23 02:57:29;;;;;;;49.10;9.20;;;;;;;2.53;100.00;97410.59;4960202;28;21020;-60
2022/09/23 02:59:57;;;;;;;18.43;7.67;;;;;;;2.52;100.00;97408.94;5010448;28;20214;-60
2022/09/23 03:02:40;;;;;;;8.53;6.87;;;;;;;2.46;100.00;97398.03;5008064;28;20703;-61
2022/09/23 03:05:17;;;;;;;11.43;6.20;;;;;;;2.43;100.00;97395.69;4990235;28;20585;-63
2022/09/23 03:07:51;;;;;;;12.63;6.93;;;;;;;2.41;100.00;97401.97;5009294;28;20203;-63
2022/09/23 03:10:23;;;;;;;40.93;11.50;;;;;;;2.40;100.00;97395.94;4986645;28;20886;-59
2022/09/23 03:12:56;;;;;;;43.03;10.10;;;;;;;2.32;100.00;97395.75;4933374;28;20224;-57
2022/09/23 03:15:28;;;;;;;30.73;8.97;;;;;;;2.32;100.00;97398.34;5004224;28;20231;-61
2022/09/23 03:18:07;;;;;;;17.03;7.80;;;;;;;2.30;100.00;97398.47;5013106;28;20205;-56
2022/09/23 03:20:38;;;;;;;10.77;8.13;;;;;;;2.35;100.00;97395.50;4987852;28;20204;-58
2022/09/23 03:23:08;;;;;;;7.50;6.80;;;;;;;2.35;100.00;97394.63;5009535;28;20960;-58
2022/09/23 03:25:38;;;;;;;22.90;8.50;;;;;;;2.28;100.00;97389.09;4981981;28;20989;-61
2022/09/23 03:28:07;;;;;;;11.63;8.95;;;;;;;2.22;100.00;97384.34;4955931;28;21072;-59
2022/09/23 03:30:36;;;;;;;11.30;7.53;;;;;;;2.23;100.00;97389.47;5006499;28;20722;-62
2022/09/23 03:33:08;;;;;;;8.93;7.77;;;;;;;2.28;100.00;97389.94;5001413;28;21010;-62
2022/09/23 03:38:25;;;;;;;14.80;8.10;;;;;;;2.02;100.00;97369.34;4996438;28;20197;-58
2022/09/23 03:40:54;;;;;;;9.63;7.70;;;;;;;2.06;100.00;97388.25;4984445;28;20671;-56
2022/09/23 03:43:22;;;;;;;18.37;7.57;;;;;;;2.01;100.00;97387.78;4960000;28;20565;-55
2022/09/23 03:45:56;;;;;;;36.83;10.53;;;;;;;1.97;100.00;97389.81;4977462;28;20596;-60
2022/09/23 03:48:26;;;;;;;19.27;8.33;;;;;;;1.96;100.00;97382.13;5009831;28;20243;-58
2022/09/23 03:50:54;;;;;;;31.77;8.17;;;;;;;1.98;100.00;97380.19;4986814;28;20281;-59
2022/09/23 03:53:22;;;;;;;19.17;8.50;;;;;;;1.93;100.00;97382.38;5009944;28;20950;-56
2022/09/23 03:55:50;;;;;;;19.93;7.97;;;;;;;1.93;100.00;97380.56;4985609;28;21031;-58
2022/09/23 03:58:18;;;;;;;10.50;7.67;;;;;;;2.00;100.00;97379.09;5008265;28;20212;-56
2022/09/23 04:00:46;;;;;;;8.87;7.77;;;;;;;1.99;100.00;97379.25;4955328;28;20212;-59
2022/09/23 04:03:14;;;;;;;8.37;7.57;;;;;;;1.98;100.00;97380.19;5008601;28;20200;-60
2022/09/23 04:05:45;;;;;;;13.80;7.37;;;;;;;1.94;100.00;97379.63;4986447;28;20900;-60
2022/09/23 04:08:13;;;;;;;12.60;7.70;;;;;;;1.75;100.00;97359.38;5009400;28;20205;-59
2022/09/23 04:10:41;;;;;;;14.93;7.83;;;;;;;1.82;100.00;97370.16;4985529;28;20208;-61
2022/09/23 04:13:09;;;;;;;11.20;7.03;;;;;;;1.72;100.00;97367.47;5011265;28;20728;-59
2022/09/23 04:15:37;;;;;;;16.40;8.17;;;;;;;1.72;100.00;97364.84;4962981;28;20235;-59
2022/09/23 04:18:05;;;;;;;8.70;7.53;;;;;;;1.80;100.00;97364.22;5008423;28;20223;-55
2022/09/23 04:20:34;;;;;;;15.33;7.70;;;;;;;1.72;100.00;97368.31;5009316;28;20204;-58
2022/09/23 04:23:03;;;;;;;21.00;8.87;;;;;;;1.69;100.00;97362.47;4987427;28;20200;-61
2022/09/23 04:25:31;;;;;;;24.23;8.97;;;;;;;1.72;100.00;97368.31;5010499;28;20231;-59
2022/09/23 04:27:59;;;;;;;21.37;9.33;;;;;;;1.79;100.00;97363.38;4985485;28;20205;-55
2022/09/23 04:30:27;;;;;;;14.23;8.97;;;;;;;1.78;100.00;97364.34;4928365;28;20758;-59
2022/09/23 04:32:55;;;;;;;12.97;8.07;;;;;;;1.84;100.00;97363.84;5003972;28;20882;-58
2022/09/23 04:35:23;;;;;;;12.63;8.27;;;;;;;1.93;100.00;97362.28;4987404;28;20225;-60
2022/09/23 04:37:51;;;;;;;15.77;8.43;;;;;;;1.95;100.00;97356.94;4994244;28;20208;-60
2022/09/23 04:40:20;;;;;;;8.50;7.87;;;;;;;1.96;100.00;97356.78;5005264;28;20212;-59
2022/09/23 04:42:49;;;;;;;8.27;7.47;;;;;;;2.00;100.00;97360.00;4961881;28;20209;-59
2022/09/23 04:45:17;;;;;;;8.17;7.53;;;;;;;2.01;100.00;97359.84;5003445;28;20224;-61
2022/09/23 04:47:45;;;;;;;35.17;9.60;;;;;;;1.98;100.00;97361.91;4959706;28;20233;-59
2022/09/23 04:50:13;;;;;;;9.93;8.10;;;;;;;1.93;100.00;97364.88;4940368;28;20209;-55
2022/09/23 04:52:41;;;;;;;19.97;8.27;;;;;;;1.97;100.00;97361.06;5007403;28;20228;-59
2022/09/23 04:55:10;;;;;;;42.50;10.53;;;;;;;2.00;100.00;97352.16;4992892;28;20252;-60
2022/09/23 04:57:39;;;;;;;22.87;10.47;;;;;;;2.00;100.00;97358.19;5013071;28;20204;-60
2022/09/23 05:00:10;;;;;;;39.20;10.00;;;;;;;1.90;100.00;97362.53;5009074;28;20208;-58
2022/09/23 05:02:43;;;;;;;19.67;9.50;;;;;;;1.84;100.00;97356.00;5011385;28;20208;-59
2022/09/23 05:05:11;;;;;;;25.57;8.40;;;;;;;1.81;100.00;97353.63;4970091;28;20234;-59
2022/09/23 05:07:39;;;;;;;40.77;9.77;;;;;;;1.76;100.00;97362.81;5008896;28;20228;-60
2022/09/23 05:10:08;;;;;;;8.17;7.37;;;;;;;1.70;100.00;97358.91;5014011;28;20235;-62
2022/09/23 05:12:36;;;;;;;48.10;11.50;;;;;;;1.69;100.00;97359.88;5010492;28;20200;-60
2022/09/23 05:15:06;;;;;;;26.63;9.80;;;;;;;1.66;100.00;97363.53;5013931;28;20228;-55
2022/09/23 05:17:36;;;;;;;12.90;8.17;;;;;;;1.67;100.00;97367.81;4965558;28;20957;-58
2022/09/23 05:20:05;;;;;;;9.70;7.97;;;;;;;1.76;100.00;97365.44;5011204;28;20200;-59
2022/09/23 05:22:33;;;;;;;18.03;10.40;;;;;;;1.75;100.00;97369.81;4967170;28;20216;-55
2022/09/23 05:25:01;;;;;;;22.67;8.83;;;;;;;1.67;100.00;97367.81;4999753;28;20243;-57
2022/09/23 05:27:30;;;;;;;18.47;9.10;;;;;;;1.72;100.00;97365.69;5009163;28;20228;-58
2022/09/23 05:29:58;;;;;;;15.77;8.67;;;;;;;1.78;100.00;97368.75;5013417;28;20211;-59
2022/09/23 05:32:27;;;;;;;18.30;8.73;;;;;;;1.87;100.00;97370.63;5008060;28;20211;-56
2022/09/23 05:34:55;;;;;;;30.20;11.13;;;;;;;1.89;100.00;97373.94;5010455;28;20235;-59
2022/09/23 05:37:24;;;;;;;19.20;9.47;;;;;;;1.96;100.00;97372.47;4963299;28;20208;-59
2022/09/23 05:39:52;;;;;;;35.47;10.63;;;;;;;1.98;100.00;97374.97;4995532;28;20216;-61
2022/09/23 05:42:20;;;;;;;16.97;8.50;;;;;;;1.96;100.00;97376.88;5001930;28;20205;-60
2022/09/23 05:44:48;;;;;;;12.77;8.67;;;;;;;2.05;100.00;97363.06;5012201;28;20948;-59
2022/09/23 05:47:16;;;;;;;16.23;8.67;;;;;;;2.17;100.00;97371.69;5012080;28;20224;-60
2022/09/23 05:49:45;;;;;;;20.20;9.73;;;;;;;2.24;100.00;97364.16;5011955;28;20234;-58
2022/09/23 05:52:27;;;;;;;11.97;9.87;;;;;;;2.34;100.00;97372.06;4962959;28;20679;-61
2022/09/23 05:54:55;;;;;;;14.93;9.90;;;;;;;2.38;100.00;97371.69;5002558;28;20221;-63
2022/09/23 05:57:23;;;;;;;9.53;8.73;;;;;;;2.53;100.00;97372.22;4987989;28;20944;-60
2022/09/23 05:59:51;;;;;;;11.83;9.60;;;;;;;2.58;100.00;97367.41;5012961;28;20208;-60
2022/09/23 06:02:19;;;;;;;9.20;8.40;;;;;;;2.71;100.00;97366.38;5006378;28;20204;-59
2022/09/23 06:04:48;;;;;;;11.37;9.30;;;;;;;2.52;100.00;97369.69;5010507;28;20231;-59
2022/09/23 06:07:16;;;;;;;18.90;9.60;;;;;;;2.65;100.00;97370.34;4964766;28;20228;-61
2022/09/23 06:09:44;;;;;;;11.23;9.67;;;;;;;2.77;100.00;97359.78;5008862;28;20200;-60
2022/09/23 06:12:13;;;;;;;10.27;9.20;;;;;;;2.77;100.00;97368.47;4997822;28;20830;-58
2022/09/23 06:14:41;;;;;;;18.57;8.27;;;;;;;2.88;100.00;97354.47;5009903;28;20223;-60
2022/09/23 06:17:08;;;;;;;9.03;8.43;;;;;;;2.90;100.00;97352.53;5014520;28;20211;-60
2022/09/23 06:19:36;;;;;;;10.43;9.70;;;;;;;2.99;100.00;97356.16;5009008;28;20205;-60
2022/09/23 06:22:06;;;;;;;27.97;9.97;;;;;;;3.01;100.00;97364.72;4966057;28;20220;-59
2022/09/23 06:24:34;;;;;;;9.60;8.80;;;;;;;3.03;100.00;97360.19;5004444;28;20231;-62
2022/09/23 06:27:02;;;;;;;16.53;9.33;;;;;;;3.24;100.00;97360.13;4997515;28;20228;-55
2022/09/23 06:29:30;;;;;;;13.70;8.40;;;;;;;3.27;100.00;97361.66;5006494;28;20212;-57
2022/09/23 06:31:59;;;;;;;16.50;10.37;;;;;;;3.29;100.00;97359.72;5009331;28;20211;-58
2022/09/23 06:34:27;;;;;;;9.60;8.60;;;;;;;3.41;100.00;97360.41;5004891;28;20316;-61
2022/09/23 06:36:56;;;;;;;9.07;8.23;;;;;;;3.54;100.00;97358.41;5010494;28;20293;-59
2022/09/23 06:39:28;;;;;;;15.83;9.87;;;;;;;3.65;100.00;97362.69;4963572;28;20220;-58
2022/09/23 06:41:56;;;;;;;16.87;10.37;;;;;;;3.86;100.00;97362.59;4994865;28;20227;-55
2022/09/23 06:44:24;;;;;;;9.00;8.20;;;;;;;4.01;100.00;97360.38;5007404;28;20227;-56
2022/09/23 06:46:52;;;;;;;9.90;9.03;;;;;;;4.20;100.00;97366.56;5012871;28;20218;-61
2022/09/23 06:49:21;;;;;;;12.67;9.00;;;;;;;4.41;100.00;97371.66;4967613;28;20206;-60
2022/09/23 06:51:49;;;;;;;10.17;9.40;;;;;;;4.68;100.00;97371.88;4970415;28;20783;-59
2022/09/23 06:54:17;;;;;;;10.13;9.13;;;;;;;4.87;100.00;97374.47;4924705;28;20229;-59
2022/09/23 06:56:47;;;;;;;11.63;9.90;;;;;;;5.22;100.00;97378.22;4916548;28;20217;-60
2022/09/23 06:59:15;;;;;;;10.03;9.33;;;;;;;5.36;100.00;97379.53;4969008;28;20787;-57
2022/09/23 07:01:46;;;;;;;10.17;9.37;;;;;;;5.41;100.00;97386.97;4970168;28;20212;-62
2022/09/23 07:04:14;;;;;;;10.50;9.70;;;;;;;5.62;100.00;97381.44;4951447;28;20240;-60
2022/09/23 07:06:42;;;;;;;9.50;8.80;;;;;;;5.53;100.00;97381.53;4970004;28;20220;-60
2022/09/23 07:09:11;;;;;;;9.73;9.00;;;;;;;5.74;100.00;97395.22;4970689;28;20240;-56
2022/09/23 07:11:39;;;;;;;10.37;9.47;;;;;;;5.86;100.00;97381.84;4922492;28;20214;-61
2022/09/23 07:14:09;;;;;;;9.70;9.00;;;;;;;6.15;100.00;97388.72;4959225;28;20237;-62
2022/09/23 07:16:37;;;;;;;9.37;8.67;;;;;;;6.09;100.00;97382.28;4971729;28;20205;-59
2022/09/23 07:19:05;;;;;;;10.00;9.20;;;;;;;6.22;100.00;97392.41;4970906;28;20257;-58
2022/09/23 07:21:33;;;;;;;9.03;8.33;;;;;;;6.32;100.00;97397.59;4971775;28;20209;-59
2022/09/23 07:24:01;;;;;;;9.00;8.30;;;;;;;6.44;100.00;97400.81;4971044;28;20218;-61
2022/09/23 07:26:32;;;;;;;9.50;8.63;;;;;;;6.57;100.00;97400.44;4948677;28;20240;-61
2022/09/23 07:29:03;;;;;;;8.03;7.37;;;;;;;6.86;100.00;97405.41;4941266;28;20229;-61
2022/09/23 07:31:36;;;;;;;8.33;7.73;;;;;;;6.87;100.00;97401.78;4971807;28;20242;-59
2022/09/23 07:34:07;;;;;;;7.80;7.20;;;;;;;6.85;100.00;97393.22;4971270;28;20343;-60
2022/09/23 07:36:36;;;;;;;7.50;6.90;;;;;;;6.97;100.00;97400.84;4971004;28;20217;-59
2022/09/23 07:39:04;;;;;;;8.70;7.97;;;;;;;7.06;100.00;97390.22;4970756;28;20220;-61
2022/09/23 07:41:34;;;;;;;7.40;6.97;;;;;;;7.09;100.00;97386.44;4951910;28;20438;-58
2022/09/23 07:44:03;;;;;;;8.33;7.57;;;;;;;7.25;100.00;97380.44;4925404;28;20225;-59
2022/09/23 07:46:34;;;;;;;8.80;8.10;;;;;;;7.37;100.00;97375.69;4966616;28;20301;-59
2022/09/23 07:49:03;;;;;;;9.10;8.20;;;;;;;7.15;100.00;97372.63;5003699;28;20236;-61
2022/09/23 07:51:33;;;;;;;8.27;7.67;;;;;;;7.33;100.00;97372.56;5008293;28;20862;-60
2022/09/23 07:54:06;;;;;;;8.07;7.47;;;;;;;7.82;100.00;97360.50;5009073;28;20311;-59
2022/09/23 07:56:35;;;;;;;8.83;8.13;;;;;;;8.09;100.00;97366.47;5008060;28;20270;-61
2022/09/23 07:59:04;;;;;;;8.40;7.80;;;;;;;8.28;100.00;97362.69;4947823;28;20215;-58
2022/09/23 08:01:34;;;;;;;9.17;8.57;;;;;;;8.30;100.00;97359.88;5009072;28;20204;-59
2022/09/23 08:04:06;;;;;;;8.20;7.60;;;;;;;8.29;100.00;97360.88;5009329;28;20223;-57
2022/09/23 08:06:34;;;;;;;9.40;8.80;;;;;;;8.39;100.00;97357.06;5008023;28;20204;-58
2022/09/23 08:09:02;;;;;;;10.30;9.30;;;;;;;8.71;100.00;97357.22;5009810;28;20849;-59
2022/09/23 08:11:31;;;;;;;10.40;9.70;;;;;;;8.81;100.00;97354.41;5010522;28;20228;-60
2022/09/23 08:13:59;;;;;;;8.53;7.83;;;;;;;9.07;100.00;97356.00;4945032;28;22036;-55
2022/09/23 08:16:28;;;;;;;8.60;8.00;;;;;;;9.26;100.00;97347.66;5007811;28;20292;-53
2022/09/23 08:18:57;;;;;;;8.00;7.40;;;;;;;9.51;100.00;97344.09;4992694;28;21177;-56
2022/09/23 08:21:25;;;;;;;8.63;7.87;;;;;;;9.52;100.00;97349.22;5013901;28;20214;-57
2022/09/23 08:23:53;;;;;;;8.10;7.50;;;;;;;9.87;100.00;97350.66;4994811;28;20239;-59
2022/09/23 08:26:21;;;;;;;7.90;7.40;;;;;;;10.03;100.00;97345.25;5013836;28;20215;-57
2022/09/23 08:28:53;;;;;;;9.47;8.27;;;;;;;10.15;100.00;97343.03;4992287;28;20228;-61
2022/09/23 08:31:22;;;;;;;7.97;7.47;;;;;;;10.26;100.00;97344.44;4965633;28;20235;-58
2022/09/23 08:33:53;;;;;;;7.90;7.40;;;;;;;10.43;100.00;97345.16;5007509;28;20228;-57
2022/09/23 08:36:23;;;;;;;7.93;7.37;;;;;;;10.57;100.00;97341.69;5013281;28;20204;-60
2022/09/23 08:38:51;;;;;;;8.20;7.63;;;;;;;10.83;99.42;97335.16;4991492;28;20196;-58
2022/09/23 08:41:26;;;;;;;7.70;7.10;;;;;;;11.04;95.06;97330.97;5008406;28;20561;-61
2022/09/23 08:43:57;;;;;;;6.67;6.17;;;;;;;11.08;91.13;97326.09;4990899;28;20777;-56
2022/09/23 08:46:28;;;;;;;7.27;6.57;;;;;;;11.05;90.01;97326.47;4966193;28;20208;-57
2022/09/23 08:48:56;;;;;;;7.33;6.83;;;;;;;11.12;89.45;97320.25;5008544;28;20224;-60
2022/09/23 08:51:30;;;;;;;6.90;6.40;;;;;;;11.21;89.35;97321.00;5013982;28;20211;-60
2022/09/23 08:53:59;;;;;;;6.47;5.87;;;;;;;11.31;88.66;97319.88;4993764;28;20230;-61
2022/09/23 08:56:29;;;;;;;6.73;6.27;;;;;;;11.41;88.43;97313.28;5012613;28;20207;-58
2022/09/23 08:59:02;;;;;;;6.60;6.20;;;;;;;11.42;87.75;97314.94;4993136;28;21564;-58
2022/09/23 09:01:34;;;;;;;6.30;5.90;;;;;;;11.68;85.00;97310.09;4967231;28;20220;-60
2022/09/23 09:04:06;;;;;;;5.43;5.00;;;;;;;11.78;82.82;97310.59;4947848;28;20231;-61
2022/09/23 09:06:42;;;;;;;5.60;5.20;;;;;;;12.04;81.02;97309.28;5011909;28;20204;-60
2022/09/23 09:09:24;;;;;;;5.03;4.63;;;;;;;12.21;82.97;97314.31;4998021;28;21589;-61
2022/09/23 09:11:56;;;;;;;4.77;4.47;;;;;;;12.30;79.84;97308.66;5011064;28;20561;-60
2022/09/23 09:14:27;;;;;;;4.33;4.13;;;;;;;12.49;78.45;97313.50;5013282;28;20212;-58
2022/09/23 09:17:00;;;;;;;4.70;4.30;;;;;;;12.49;78.00;97313.50;5010806;28;20885;-60
2022/09/23 09:19:48;;;;;;;4.40;4.20;;;;;;;12.58;77.02;97307.03;4968587;28;20215;-61
2022/09/23 09:22:20;;;;;;;5.00;4.60;;;;;;;12.46;77.15;97309.41;5010169;28;20917;-59
2022/09/23 09:24:49;;;;;;;4.70;4.40;;;;;;;12.63;77.13;97304.59;5012176;28;20236;-61
2022/09/23 09:27:17;;;;;;;5.03;4.63;;;;;;;12.67;77.49;97305.06;4997245;28;20207;-59
2022/09/23 09:29:47;;;;;;;16.23;14.57;;;;;;;12.77;75.37;97302.06;5010726;28;20497;-62
2022/09/23 09:32:24;;;;;;;6.50;5.90;;;;;;;12.82;73.85;97296.97;5009302;28;20206;-60
2022/09/23 09:34:56;;;;;;;4.80;4.50;;;;;;;12.92;74.00;97300.09;4966187;28;20369;-58
2022/09/23 09:37:31;;;;;;;3.83;3.53;;;;;;;13.02;73.72;97295.22;5009453;28;20953;-62
2022/09/23 09:40:00;;;;;;;4.07;3.77;;;;;;;13.08;71.82;97290.16;5002105;28;20215;-60
2022/09/23 09:42:37;;;;;;;3.70;3.50;;;;;;;13.26;72.39;97295.75;5005637;28;20212;-59
2022/09/23 09:45:12;;;;;;;3.83;3.27;;;;;;;13.39;71.11;97289.66;5009991;28;20236;-60
2022/09/23 09:47:47;;;;;;;3.47;3.27;;;;;;;13.44;70.22;97281.09;5013254;28;21222;-61
2022/09/23 09:50:20;;;;;;;4.83;3.30;;;;;;;13.54;70.02;97278.91;4963853;28;20515;-61
2022/09/23 09:52:50;;;;;;;2.67;2.57;;;;;;;13.61;68.07;97260.25;5007149;28;20208;-60
2022/09/23 09:55:25;;;;;;;2.90;2.70;;;;;;;13.74;66.61;97275.44;5005261;28;21014;-58
2022/09/23 09:58:04;;;;;;;13.63;12.23;;;;;;;13.89;66.97;97272.59;4989575;28;20204;-58
2022/09/23 10:00:38;;;;;;;7.60;6.93;;;;;;;14.01;67.19;97267.50;5012446;28;20200;-62
2022/09/23 10:03:23;;;;;;;5.07;4.60;;;;;;;13.94;65.49;97262.16;5007907;28;20207;-60
2022/09/23 10:05:53;;;;;;;2.97;2.77;;;;;;;13.84;65.05;97262.59;5005290;28;20227;-61
2022/09/23 10:08:26;;;;;;;4.27;2.77;;;;;;;13.91;65.52;97256.44;4982352;28;20271;-55
2022/09/23 10:11:01;;;;;;;2.97;2.67;;;;;;;13.83;64.63;97263.59;5012742;28;20235;-60
2022/09/23 10:13:30;;;;;;;2.80;2.70;;;;;;;13.92;64.21;97258.06;5009385;28;20212;-63
2022/09/23 10:15:59;;;;;;;2.60;2.50;;;;;;;13.99;62.71;97249.03;5009183;28;20208;-59
2022/09/23 10:18:30;;;;;;;5.07;2.87;;;;;;;14.20;62.27;97247.22;5012821;28;20215;-63
2022/09/23 10:21:07;;;;;;;2.60;2.37;;;;;;;14.36;61.90;97235.31;4985202;28;20200;-58
2022/09/23 10:23:40;;;;;;;2.50;2.20;;;;;;;14.48;60.49;97238.97;4965927;28;20208;-59
2022/09/23 10:26:09;;;;;;;1.67;1.67;;;;;;;14.61;59.42;97238.13;5010562;28;20975;-63
2022/09/23 10:28:44;;;;;;;2.00;1.90;;;;;;;14.45;57.88;97227.94;4994816;28;20200;-61
2022/09/23 10:31:13;;;;;;;3.87;2.13;;;;;;;14.56;58.98;97226.44;5008656;28;20930;-56
2022/09/23 10:33:45;;;;;;;2.00;1.90;;;;;;;14.74;57.85;97231.16;5009252;28;20546;-61
2022/09/23 10:36:14;;;;;;;2.83;2.20;;;;;;;14.94;56.75;97231.09;5010177;28;20216;-59
2022/09/23 10:38:44;;;;;;;2.20;2.10;;;;;;;14.96;57.14;97228.22;4964716;28;20220;-61
2022/09/23 10:47:15;;;;;;;1.60;1.60;;;;;;;14.92;56.52;97222.47;4999766;28;20977;-63
2022/09/23 10:50:03;;;;;;;1.53;1.53;;;;;;;15.00;56.61;97219.59;4998478;28;20235;-60
2022/09/23 10:52:42;;;;;;;1.70;1.70;;;;;;;15.10;56.42;97215.66;4999648;28;20227;-62
2022/09/23 10:55:21;;;;;;;1.63;1.53;;;;;;;15.40;56.09;97205.22;4989289;28;20228;-56
2022/09/23 10:58:08;;;;;;;1.40;1.40;;;;;;;15.58;55.50;97209.03;4984994;28;20213;-62
2022/09/23 11:00:42;;;;;;;1.40;1.40;;;;;;;15.62;53.51;97205.69;5004446;28;20754;-62
2022/09/23 11:03:41;;;;;;;2.10;2.00;;;;;;;15.81;53.38;97195.09;5003963;28;21120;-60
2022/09/23 11:06:16;;;;;;;1.60;1.50;;;;;;;15.94;51.56;97188.88;4996903;28;20921;-59
2022/09/23 11:08:58;;;;;;;1.63;1.63;;;;;;;16.02;51.66;97188.59;4977436;28;20205;-61
2022/09/23 11:11:48;;;;;;;1.93;1.53;;;;;;;16.08;50.57;97191.44;4941314;28;20235;-60
2022/09/23 11:14:28;;;;;;;1.57;1.50;;;;;;;16.22;52.68;97200.16;5000396;28;20228;-60
2022/09/23 11:17:15;;;;;;;1.63;1.60;;;;;;;16.35;50.18;97186.63;4982891;28;20212;-60
2022/09/23 11:20:11;;;;;;;1.37;1.37;;;;;;;16.32;50.88;97184.41;5007451;28;20231;-59
2022/09/23 11:22:55;;;;;;;2.60;1.50;;;;;;;16.27;50.48;97187.72;4986027;28;20210;-62
2022/09/23 11:25:31;;;;;;;1.70;1.70;;;;;;;16.46;50.32;97172.53;4974996;28;20630;-59
2022/09/23 11:28:17;;;;;;;1.60;1.50;;;;;;;16.68;49.58;97173.97;4964909;28;20214;-62
2022/09/23 11:30:52;;;;;;;1.63;1.63;;;;;;;16.68;49.43;97174.78;4964205;28;20446;-58
2022/09/23 11:33:32;;;;;;;1.37;1.37;;;;;;;16.43;47.67;97177.53;4991106;28;20224;-58
2022/09/23 11:36:02;;;;;;;1.70;1.60;;;;;;;16.30;47.67;97173.97;4982745;28;20993;-58
2022/09/23 11:38:34;;;;;;;1.33;1.33;;;;;;;16.45;47.33;97175.44;4989077;28;20208;-54
2022/09/23 11:41:12;;;;;;;1.97;1.60;;;;;;;16.49;45.92;97158.75;5002679;28;20202;-54
2022/09/23 11:43:42;;;;;;;1.67;1.50;;;;;;;16.84;47.16;97169.84;4963756;28;20216;-59
2022/09/23 11:46:15;;;;;;;1.60;1.50;;;;;;;16.86;45.27;97157.88;4984197;28;20525;-59
2022/09/23 11:48:45;;;;;;;1.10;1.10;;;;;;;16.86;45.00;97159.75;4991274;28;20908;-58
2022/09/23 11:51:18;;;;;;;1.20;1.20;;;;;;;16.95;45.39;97153.06;5002395;28;20229;-60
2022/09/23 11:53:50;;;;;;;1.63;1.52;;;;;;;17.27;46.10;97154.72;4960710;28;20453;-59
2022/09/23 11:56:22;;;;;;;1.70;1.60;;;;;;;17.50;46.04;97153.97;4981922;28;20294;-58
2022/09/23 11:59:09;;;;;;;1.80;1.70;;;;;;;17.54;46.60;97147.09;4961831;28;20224;-59
2022/09/23 12:01:42;;;;;;;1.37;1.37;;;;;;;17.61;46.51;97147.81;4976554;28;22028;-58